Nyk Constellation — V7NP4 — position and weather

sailwx.info

Track history (hours):
 
Tides and Currents Weather Stations Pressure Air Temp Water Temp Dewpoint Dewpoint Depression Visibility Wind Speed Wind Dir Waves Ship Positions

Nyk Constellation

Last reported at 2018-Jul-14 13:23 UTC. Time now 2018-Jul-19 13:33 UTC.
Position N 35°04' E 140°29'.

Length 294 m; draft 10.8 m.

Type: Cargo ship. MMSI: 538002992.

Date/timePositionNaut miles runAvg speedWind from/ knotsBaromVisibWave heightAir tempDewpointWater temp
2018-Jul-14 13:23N 35°04' E 140°29'2122.4
2018-Jul-14 12:27N 34°52' E 140°08'1322.4
2018-Jul-14 11:53N 34°47' E 139°54'821.6
2018-Jul-14 11:29N 34°48' E 139°43'1020.6
2018-Jul-14 11:00N 34°58' E 139°41'918.6
2018-Jul-14 10:30N 35°07' E 139°45'612.2
2018-Jul-14 10:00N 35°13' E 139°46'611.8
2018-Jul-14 09:30N 35°19' E 139°44'612.7
2018-Jul-14 09:00N 35°25' E 139°43'714.1
2018-Jul-14 08:30N 35°29' E 139°50'612.1
2018-Jul-14 08:00N 35°35' E 139°48'2 2.9
2018-Jul-14 07:27N 35°36' E 139°46'0 0.0
2018-Jul-14 06:57N 35°36' E 139°46'0 0.0
2018-Jul-14 06:30N 35°36' E 139°46'0 0.0
2018-Jul-14 06:00N 35°36' E 139°46'0 0.0
2018-Jul-14 05:30N 35°36' E 139°46'0 0.0
2018-Jul-14 05:00N 35°36' E 139°46'0 0.0
2018-Jul-14 04:30N 35°36' E 139°46'0 0.0
2018-Jul-14 03:57N 35°36' E 139°46'0 0.0
2018-Jul-14 03:24N 35°36' E 139°46'0 0.0
2018-Jul-14 03:00N 35°36' E 139°46'0 0.0
2018-Jul-14 02:30N 35°36' E 139°46'0 0.0
2018-Jul-14 02:00N 35°36' E 139°46'0 0.0
2018-Jul-14 01:30N 35°36' E 139°46'0 0.0
2018-Jul-14 01:00N 35°36' E 139°46'0 0.0
2018-Jul-14 00:21N 35°36' E 139°46'0 0.0
2018-Jul-14 00:00N 35°36' E 139°46'0 0.2
2018-Jul-13 23:30N 35°36' E 139°47'3 6.8
2018-Jul-13 23:00N 35°34' E 139°50'510.5
2018-Jul-13 22:30N 35°29' E 139°51'713.3
2018-Jul-13 22:00N 35°23' E 139°46'611.2
2018-Jul-13 21:30N 35°18' E 139°45'611.1
2018-Jul-13 21:00N 35°13' E 139°47'510.5
2018-Jul-13 20:30N 35°07' E 139°46'510.9
2018-Jul-13 20:01N 35°02' E 139°43'714.1
2018-Jul-13 19:30N 34°56' E 139°39'816.8
2018-Jul-13 19:00N 34°48' E 139°37'918.5
2018-Jul-13 18:30N 34°39' E 139°32'3118.0
2018-Jul-13 16:47N 34°28' E 138°57'519.3
2018-Jul-13 16:30N 34°28' E 138°51'918.9
2018-Jul-13 16:00N 34°28' E 138°39'1218.4
2018-Jul-13 15:22N 34°28' E 138°25'171 6.1
2018-Jul-12 11:11N 33°37' E 135°07'319.7
2018-Jul-12 11:01N 33°39' E 135°05'918.6
2018-Jul-12 10:31N 33°48' E 135°00'1019.0
2018-Jul-12 10:00N 33°57' E 134°58'918.9
2018-Jul-12 09:30N 34°07' E 134°57'713.9
2018-Jul-12 09:00N 34°14' E 134°57'612.9
2018-Jul-12 08:30N 34°20' E 134°59'816.5
2018-Jul-12 08:00N 34°27' E 135°05'918.0
2018-Jul-12 07:30N 34°32' E 135°13'714.8
2018-Jul-12 07:01N 34°38' E 135°18'2 4.8
2018-Jul-12 06:30N 34°41' E 135°17'0 0.4
2018-Jul-12 06:00N 34°41' E 135°17'0 0.0
2018-Jul-12 05:27N 34°41' E 135°17'0 0.0
2018-Jul-12 04:57N 34°41' E 135°17'0 0.0
2018-Jul-12 04:30N 34°41' E 135°17'0 0.0
2018-Jul-12 03:57N 34°41' E 135°17'0 0.0
2018-Jul-12 03:27N 34°41' E 135°17'0 0.0
2018-Jul-12 02:57N 34°41' E 135°17'0 0.0
2018-Jul-12 02:27N 34°41' E 135°17'0 0.0
2018-Jul-12 02:00N 34°41' E 135°17'0 0.0
2018-Jul-12 01:27N 34°41' E 135°17'0 0.0
2018-Jul-12 00:54N 34°41' E 135°17'0 0.0
2018-Jul-12 00:30N 34°41' E 135°17'0 0.0
2018-Jul-12 00:00N 34°41' E 135°17'0 0.0
2018-Jul-11 23:27N 34°41' E 135°17'0 0.0
2018-Jul-11 22:57N 34°41' E 135°17'0 0.0
2018-Jul-11 22:30N 34°41' E 135°17'0 0.0
2018-Jul-11 22:00N 34°41' E 135°17'0 0.1
2018-Jul-11 21:30N 34°41' E 135°17'0 0.1
2018-Jul-11 21:00N 34°41' E 135°17'0 0.0
2018-Jul-11 20:30N 34°41' E 135°17'0 0.0
2018-Jul-11 19:57N 34°41' E 135°17'0 0.1
2018-Jul-11 19:27N 34°41' E 135°17'0 0.1
2018-Jul-11 18:57N 34°41' E 135°17'0 0.1
2018-Jul-11 18:30N 34°41' E 135°17'0 0.0
2018-Jul-11 17:57N 34°41' E 135°17'0 0.1
2018-Jul-11 17:21N 34°41' E 135°17'0 0.0
2018-Jul-11 16:57N 34°41' E 135°17'0 0.0
2018-Jul-11 16:27N 34°41' E 135°17'0 0.0
2018-Jul-11 15:57N 34°41' E 135°17'0 0.0
2018-Jul-11 15:27N 34°41' E 135°17'0 0.1
2018-Jul-11 14:57N 34°41' E 135°17'0 0.1
2018-Jul-11 14:27N 34°41' E 135°17'0 0.0
2018-Jul-11 13:57N 34°41' E 135°17'0 0.0
2018-Jul-11 13:27N 34°41' E 135°17'0 0.1
2018-Jul-11 13:00N 34°41' E 135°17'0 0.1
2018-Jul-11 12:27N 34°41' E 135°17'0 0.1
2018-Jul-11 11:57N 34°41' E 135°17'0 0.1
2018-Jul-11 11:30N 34°41' E 135°17'0 0.0
2018-Jul-11 10:57N 34°41' E 135°17'0 0.0
2018-Jul-11 10:27N 34°41' E 135°17'0 0.0
2018-Jul-11 09:57N 34°41' E 135°17'0 0.1
2018-Jul-11 09:27N 34°41' E 135°17'0 0.1
2018-Jul-11 09:00N 34°41' E 135°17'0 0.0
2018-Jul-11 08:27N 34°41' E 135°17'0 0.0
2018-Jul-11 07:57N 34°41' E 135°17'0 0.0
2018-Jul-11 07:27N 34°41' E 135°17'0 0.1
2018-Jul-11 06:57N 34°41' E 135°17'0 0.1
2018-Jul-11 06:27N 34°41' E 135°17'0 0.0
2018-Jul-11 06:00N 34°41' E 135°17'0 0.1
2018-Jul-11 05:30N 34°41' E 135°17'0 0.0
2018-Jul-11 05:00N 34°41' E 135°17'0 0.1
2018-Jul-11 04:30N 34°41' E 135°17'0 0.0
2018-Jul-11 03:57N 34°41' E 135°17'0 0.1
2018-Jul-11 03:30N 34°41' E 135°17'0 0.1
2018-Jul-11 03:00N 34°41' E 135°17'0 0.0
2018-Jul-11 02:27N 34°41' E 135°17'0 0.1
2018-Jul-11 01:57N 34°41' E 135°17'0 0.1
2018-Jul-11 01:30N 34°41' E 135°17'0 0.0
2018-Jul-11 00:57N 34°41' E 135°17'0 0.1
2018-Jul-11 00:30N 34°41' E 135°17'0 0.1
2018-Jul-10 23:57N 34°41' E 135°17'0 0.0
2018-Jul-10 23:27N 34°41' E 135°17'0 0.0
2018-Jul-10 22:57N 34°41' E 135°17'0 0.1
2018-Jul-10 22:30N 34°41' E 135°17'2 4.2
2018-Jul-10 22:00N 34°39' E 135°18'713.3
2018-Jul-10 21:31N 34°33' E 135°14'917.6
2018-Jul-10 21:01N 34°27' E 135°07'1020.1
2018-Jul-10 20:31N 34°19' E 134°60'815.7
2018-Jul-10 20:00N 34°11' E 134°60'510.9
2018-Jul-10 19:30N 34°05' E 134°60'714.7
2018-Jul-10 19:00N 33°58' E 134°59'917.5
2018-Jul-10 18:30N 33°49' E 134°59'917.3
2018-Jul-10 18:00N 33°42' E 135°04'233 7.7
2018-Jul-09 11:51N 34°44' E 139°35'720.2
2018-Jul-09 11:30N 34°50' E 139°38'1019.2
2018-Jul-09 11:00N 34°60' E 139°40'917.3
2018-Jul-09 10:30N 35°08' E 139°45'612.6
2018-Jul-09 10:00N 35°14' E 139°46'612.6
2018-Jul-09 09:30N 35°19' E 139°43'714.0
2018-Jul-09 09:00N 35°26' E 139°45'714.8
2018-Jul-09 08:30N 35°32' E 139°51'510.8
2018-Jul-09 08:00N 35°36' E 139°47'0 0.5
2018-Jul-09 07:28N 35°36' E 139°46'0 0.0
2018-Jul-09 06:58N 35°36' E 139°46'0 0.0
2018-Jul-09 06:28N 35°36' E 139°46'0 0.0
2018-Jul-09 05:58N 35°36' E 139°46'0 0.0
2018-Jul-09 05:28N 35°36' E 139°46'0 0.0
2018-Jul-09 04:58N 35°36' E 139°46'0 0.0
2018-Jul-09 04:28N 35°36' E 139°46'0 0.0
2018-Jul-09 03:58N 35°36' E 139°46'0 0.1
2018-Jul-09 03:25N 35°36' E 139°46'0 0.1
2018-Jul-09 02:58N 35°36' E 139°46'0 0.1
2018-Jul-09 02:28N 35°36' E 139°46'0 0.0
2018-Jul-09 01:58N 35°36' E 139°46'0 0.0
2018-Jul-09 01:28N 35°36' E 139°46'0 0.0
2018-Jul-09 00:58N 35°36' E 139°46'0 0.0
2018-Jul-09 00:28N 35°36' E 139°46'0 0.0
2018-Jul-08 23:58N 35°36' E 139°46'0 0.0
2018-Jul-08 23:28N 35°36' E 139°46'0 0.1
2018-Jul-08 23:00N 35°36' E 139°46'2 5.0
2018-Jul-08 22:30N 35°34' E 139°49'510.4
2018-Jul-08 22:00N 35°30' E 139°52'714.0
2018-Jul-08 21:30N 35°25' E 139°47'612.8
2018-Jul-08 21:01N 35°19' E 139°44'611.7
2018-Jul-08 20:31N 35°13' E 139°47'5 9.1
2018-Jul-08 20:00N 35°09' E 139°46'3 6.6
2018-Jul-08 19:31N 35°06' E 139°44'4 8.7
2018-Jul-08 19:00N 35°02' E 139°42'5 9.7
2018-Jul-08 18:30N 34°57' E 139°41'510.0
2018-Jul-08 18:00N 34°52' E 139°41'6 9.2
2018-Jul-08 17:24N 34°48' E 139°46'  
Track history (hours):
 
Tides and Currents Weather Stations Pressure Air Temp Water Temp Dewpoint Dewpoint Depression Visibility Wind Speed Wind Dir Waves Ship Positions

Nyk Constellation

Last reported at 2018-Jul-14 13:23 UTC. Time now 2018-Jul-19 13:33 UTC.
Position N 35°04' E 140°29'.

Length 294 m; draft 10.8 m.

Type: Cargo ship. MMSI: 538002992.

Date/timePositionNaut miles runAvg speedWind from/ knotsBaromVisibWave heightAir tempDewpointWater temp
2018-Jul-14 13:23N 35°04' E 140°29'2122.4
2018-Jul-14 12:27N 34°52' E 140°08'1322.4
2018-Jul-14 11:53N 34°47' E 139°54'821.6
2018-Jul-14 11:29N 34°48' E 139°43'1020.6
2018-Jul-14 11:00N 34°58' E 139°41'918.6
2018-Jul-14 10:30N 35°07' E 139°45'612.2
2018-Jul-14 10:00N 35°13' E 139°46'611.8
2018-Jul-14 09:30N 35°19' E 139°44'612.7
2018-Jul-14 09:00N 35°25' E 139°43'714.1
2018-Jul-14 08:30N 35°29' E 139°50'612.1
2018-Jul-14 08:00N 35°35' E 139°48'2 2.9
2018-Jul-14 07:27N 35°36' E 139°46'0 0.0
2018-Jul-14 06:57N 35°36' E 139°46'0 0.0
2018-Jul-14 06:30N 35°36' E 139°46'0 0.0
2018-Jul-14 06:00N 35°36' E 139°46'0 0.0
2018-Jul-14 05:30N 35°36' E 139°46'0 0.0
2018-Jul-14 05:00N 35°36' E 139°46'0 0.0
2018-Jul-14 04:30N 35°36' E 139°46'0 0.0
2018-Jul-14 03:57N 35°36' E 139°46'0 0.0
2018-Jul-14 03:24N 35°36' E 139°46'0 0.0
2018-Jul-14 03:00N 35°36' E 139°46'0 0.0
2018-Jul-14 02:30N 35°36' E 139°46'0 0.0
2018-Jul-14 02:00N 35°36' E 139°46'0 0.0
2018-Jul-14 01:30N 35°36' E 139°46'0 0.0
2018-Jul-14 01:00N 35°36' E 139°46'0 0.0
2018-Jul-14 00:21N 35°36' E 139°46'0 0.0
2018-Jul-14 00:00N 35°36' E 139°46'0 0.2
2018-Jul-13 23:30N 35°36' E 139°47'3 6.8
2018-Jul-13 23:00N 35°34' E 139°50'510.5
2018-Jul-13 22:30N 35°29' E 139°51'713.3
2018-Jul-13 22:00N 35°23' E 139°46'611.2
2018-Jul-13 21:30N 35°18' E 139°45'611.1
2018-Jul-13 21:00N 35°13' E 139°47'510.5
2018-Jul-13 20:30N 35°07' E 139°46'510.9
2018-Jul-13 20:01N 35°02' E 139°43'714.1
2018-Jul-13 19:30N 34°56' E 139°39'816.8
2018-Jul-13 19:00N 34°48' E 139°37'918.5
2018-Jul-13 18:30N 34°39' E 139°32'3118.0
2018-Jul-13 16:47N 34°28' E 138°57'519.3
2018-Jul-13 16:30N 34°28' E 138°51'918.9
2018-Jul-13 16:00N 34°28' E 138°39'1218.4
2018-Jul-13 15:22N 34°28' E 138°25'171 6.1
2018-Jul-12 11:11N 33°37' E 135°07'319.7
2018-Jul-12 11:01N 33°39' E 135°05'918.6
2018-Jul-12 10:31N 33°48' E 135°00'1019.0
2018-Jul-12 10:00N 33°57' E 134°58'918.9
2018-Jul-12 09:30N 34°07' E 134°57'713.9
2018-Jul-12 09:00N 34°14' E 134°57'612.9
2018-Jul-12 08:30N 34°20' E 134°59'816.5
2018-Jul-12 08:00N 34°27' E 135°05'918.0
2018-Jul-12 07:30N 34°32' E 135°13'714.8
2018-Jul-12 07:01N 34°38' E 135°18'2 4.8
2018-Jul-12 06:30N 34°41' E 135°17'0 0.4
2018-Jul-12 06:00N 34°41' E 135°17'0 0.0
2018-Jul-12 05:27N 34°41' E 135°17'0 0.0
2018-Jul-12 04:57N 34°41' E 135°17'0 0.0
2018-Jul-12 04:30N 34°41' E 135°17'0 0.0
2018-Jul-12 03:57N 34°41' E 135°17'0 0.0
2018-Jul-12 03:27N 34°41' E 135°17'0 0.0
2018-Jul-12 02:57N 34°41' E 135°17'0 0.0
2018-Jul-12 02:27N 34°41' E 135°17'0 0.0
2018-Jul-12 02:00N 34°41' E 135°17'0 0.0
2018-Jul-12 01:27N 34°41' E 135°17'0 0.0
2018-Jul-12 00:54N 34°41' E 135°17'0 0.0
2018-Jul-12 00:30N 34°41' E 135°17'0 0.0
2018-Jul-12 00:00N 34°41' E 135°17'0 0.0
2018-Jul-11 23:27N 34°41' E 135°17'0 0.0
2018-Jul-11 22:57N 34°41' E 135°17'0 0.0
2018-Jul-11 22:30N 34°41' E 135°17'0 0.0
2018-Jul-11 22:00N 34°41' E 135°17'0 0.1
2018-Jul-11 21:30N 34°41' E 135°17'0 0.1
2018-Jul-11 21:00N 34°41' E 135°17'0 0.0
2018-Jul-11 20:30N 34°41' E 135°17'0 0.0
2018-Jul-11 19:57N 34°41' E 135°17'0 0.1
2018-Jul-11 19:27N 34°41' E 135°17'0 0.1
2018-Jul-11 18:57N 34°41' E 135°17'0 0.1
2018-Jul-11 18:30N 34°41' E 135°17'0 0.0
2018-Jul-11 17:57N 34°41' E 135°17'0 0.1
2018-Jul-11 17:21N 34°41' E 135°17'0 0.0
2018-Jul-11 16:57N 34°41' E 135°17'0 0.0
2018-Jul-11 16:27N 34°41' E 135°17'0 0.0
2018-Jul-11 15:57N 34°41' E 135°17'0 0.0
2018-Jul-11 15:27N 34°41' E 135°17'0 0.1
2018-Jul-11 14:57N 34°41' E 135°17'0 0.1
2018-Jul-11 14:27N 34°41' E 135°17'0 0.0
2018-Jul-11 13:57N 34°41' E 135°17'0 0.0
2018-Jul-11 13:27N 34°41' E 135°17'0 0.1
2018-Jul-11 13:00N 34°41' E 135°17'0 0.1
2018-Jul-11 12:27N 34°41' E 135°17'0 0.1
2018-Jul-11 11:57N 34°41' E 135°17'0 0.1
2018-Jul-11 11:30N 34°41' E 135°17'0 0.0
2018-Jul-11 10:57N 34°41' E 135°17'0 0.0
2018-Jul-11 10:27N 34°41' E 135°17'0 0.0
2018-Jul-11 09:57N 34°41' E 135°17'0 0.1
2018-Jul-11 09:27N 34°41' E 135°17'0 0.1
2018-Jul-11 09:00N 34°41' E 135°17'0 0.0
2018-Jul-11 08:27N 34°41' E 135°17'0 0.0
2018-Jul-11 07:57N 34°41' E 135°17'0 0.0
2018-Jul-11 07:27N 34°41' E 135°17'0 0.1
2018-Jul-11 06:57N 34°41' E 135°17'0 0.1
2018-Jul-11 06:27N 34°41' E 135°17'0 0.0
2018-Jul-11 06:00N 34°41' E 135°17'0 0.1
2018-Jul-11 05:30N 34°41' E 135°17'0 0.0
2018-Jul-11 05:00N 34°41' E 135°17'0 0.1
2018-Jul-11 04:30N 34°41' E 135°17'0 0.0
2018-Jul-11 03:57N 34°41' E 135°17'0 0.1
2018-Jul-11 03:30N 34°41' E 135°17'0 0.1
2018-Jul-11 03:00N 34°41' E 135°17'0 0.0
2018-Jul-11 02:27N 34°41' E 135°17'0 0.1
2018-Jul-11 01:57N 34°41' E 135°17'0 0.1
2018-Jul-11 01:30N 34°41' E 135°17'0 0.0
2018-Jul-11 00:57N 34°41' E 135°17'0 0.1
2018-Jul-11 00:30N 34°41' E 135°17'0 0.1
2018-Jul-10 23:57N 34°41' E 135°17'0 0.0
2018-Jul-10 23:27N 34°41' E 135°17'0 0.0
2018-Jul-10 22:57N 34°41' E 135°17'0 0.1
2018-Jul-10 22:30N 34°41' E 135°17'2 4.2
2018-Jul-10 22:00N 34°39' E 135°18'713.3
2018-Jul-10 21:31N 34°33' E 135°14'917.6
2018-Jul-10 21:01N 34°27' E 135°07'1020.1
2018-Jul-10 20:31N 34°19' E 134°60'815.7
2018-Jul-10 20:00N 34°11' E 134°60'510.9
2018-Jul-10 19:30N 34°05' E 134°60'714.7
2018-Jul-10 19:00N 33°58' E 134°59'917.5
2018-Jul-10 18:30N 33°49' E 134°59'917.3
2018-Jul-10 18:00N 33°42' E 135°04'233 7.7
2018-Jul-09 11:51N 34°44' E 139°35'720.2
2018-Jul-09 11:30N 34°50' E 139°38'1019.2
2018-Jul-09 11:00N 34°60' E 139°40'917.3
2018-Jul-09 10:30N 35°08' E 139°45'612.6
2018-Jul-09 10:00N 35°14' E 139°46'612.6
2018-Jul-09 09:30N 35°19' E 139°43'714.0
2018-Jul-09 09:00N 35°26' E 139°45'714.8
2018-Jul-09 08:30N 35°32' E 139°51'510.8
2018-Jul-09 08:00N 35°36' E 139°47'0 0.5
2018-Jul-09 07:28N 35°36' E 139°46'0 0.0
2018-Jul-09 06:58N 35°36' E 139°46'0 0.0
2018-Jul-09 06:28N 35°36' E 139°46'0 0.0
2018-Jul-09 05:58N 35°36' E 139°46'0 0.0
2018-Jul-09 05:28N 35°36' E 139°46'0 0.0
2018-Jul-09 04:58N 35°36' E 139°46'0 0.0
2018-Jul-09 04:28N 35°36' E 139°46'0 0.0
2018-Jul-09 03:58N 35°36' E 139°46'0 0.1
2018-Jul-09 03:25N 35°36' E 139°46'0 0.1
2018-Jul-09 02:58N 35°36' E 139°46'0 0.1
2018-Jul-09 02:28N 35°36' E 139°46'0 0.0
2018-Jul-09 01:58N 35°36' E 139°46'0 0.0
2018-Jul-09 01:28N 35°36' E 139°46'0 0.0
2018-Jul-09 00:58N 35°36' E 139°46'0 0.0
2018-Jul-09 00:28N 35°36' E 139°46'0 0.0
2018-Jul-08 23:58N 35°36' E 139°46'0 0.0
2018-Jul-08 23:28N 35°36' E 139°46'0 0.1
2018-Jul-08 23:00N 35°36' E 139°46'2 5.0
2018-Jul-08 22:30N 35°34' E 139°49'510.4
2018-Jul-08 22:00N 35°30' E 139°52'714.0
2018-Jul-08 21:30N 35°25' E 139°47'612.8
2018-Jul-08 21:01N 35°19' E 139°44'611.7
2018-Jul-08 20:31N 35°13' E 139°47'5 9.1
2018-Jul-08 20:00N 35°09' E 139°46'3 6.6
2018-Jul-08 19:31N 35°06' E 139°44'4 8.7
2018-Jul-08 19:00N 35°02' E 139°42'5 9.7
2018-Jul-08 18:30N 34°57' E 139°41'510.0
2018-Jul-08 18:00N 34°52' E 139°41'6 9.2
2018-Jul-08 17:24N 34°48' E 139°46'  

Dump ship's entire track history